Daian — JD4196 — position and weather

sailwx.info

Track history (hours):
 
Tides and Currents Weather Stations Pressure Air Temp Water Temp Dewpoint Dewpoint Depression Visibility Wind Speed Wind Dir Waves Ship Positions

Daian

Last reported at 2018-Apr-24 12:31 UTC. Time now 2018-Apr-24 12:40 UTC.
Position N 35°27' E 139°40'.

Length 42 m; draft 3.8 m.

Type: Tug. MMSI: 431010253.

Date/timePositionNaut miles runAvg speedWind from/ knotsBaromVisibWave heightAir tempDewpointWater temp
2018-Apr-24 12:31N 35°27' E 139°40'0 0.0
2018-Apr-24 12:01N 35°27' E 139°40'0 0.0
2018-Apr-24 11:31N 35°27' E 139°40'0 0.0
2018-Apr-24 11:01N 35°27' E 139°40'0 0.0
2018-Apr-24 10:31N 35°27' E 139°40'0 0.0
2018-Apr-24 10:00N 35°27' E 139°40'0 0.0
2018-Apr-24 09:30N 35°27' E 139°40'0 0.0
2018-Apr-24 09:01N 35°27' E 139°40'0 0.0
2018-Apr-24 08:30N 35°27' E 139°40'0 0.0
2018-Apr-24 08:00N 35°27' E 139°40'0 0.0
2018-Apr-24 07:31N 35°27' E 139°40'0 0.0
2018-Apr-24 07:01N 35°27' E 139°40'0 0.0
2018-Apr-24 06:30N 35°27' E 139°40'0 0.0
2018-Apr-24 06:01N 35°27' E 139°40'0 0.0
2018-Apr-24 05:30N 35°27' E 139°40'0 0.0
2018-Apr-24 05:00N 35°27' E 139°40'0 0.0
2018-Apr-24 04:31N 35°27' E 139°40'0 0.0
2018-Apr-24 04:00N 35°27' E 139°40'0 0.0
2018-Apr-24 03:31N 35°27' E 139°40'0 0.0
2018-Apr-24 03:01N 35°27' E 139°40'0 0.0
2018-Apr-24 02:31N 35°27' E 139°40'0 0.0
2018-Apr-24 02:00N 35°27' E 139°40'0 0.0
2018-Apr-24 01:30N 35°27' E 139°40'0 0.0
2018-Apr-24 01:01N 35°27' E 139°40'0 0.0
2018-Apr-24 00:30N 35°27' E 139°40'0 0.0
2018-Apr-24 00:01N 35°27' E 139°40'1 1.5
2018-Apr-23 23:30N 35°27' E 139°40'2 3.6
2018-Apr-23 23:00N 35°29' E 139°42'4 7.0
2018-Apr-23 22:30N 35°31' E 139°45'1 1.5
2018-Apr-23 22:00N 35°30' E 139°44'2 5.0
2018-Apr-23 21:30N 35°28' E 139°42'0 0.1
2018-Apr-23 21:01N 35°28' E 139°42'1 2.6
2018-Apr-23 20:31N 35°27' E 139°42'0 0.0
2018-Apr-23 20:00N 35°27' E 139°42'1 2.6
2018-Apr-23 19:31N 35°26' E 139°41'1 1.1
2018-Apr-23 19:01N 35°27' E 139°40'0 0.0
2018-Apr-23 18:31N 35°27' E 139°40'0 0.0
2018-Apr-23 18:01N 35°27' E 139°40'0 0.0
2018-Apr-23 17:30N 35°27' E 139°40'0 0.0
2018-Apr-23 17:01N 35°27' E 139°40'0 0.0
2018-Apr-23 16:30N 35°27' E 139°40'0 0.0
2018-Apr-23 16:00N 35°27' E 139°40'0 0.0
2018-Apr-23 15:31N 35°27' E 139°40'0 0.0
2018-Apr-23 15:00N 35°27' E 139°40'0 0.0
2018-Apr-23 14:30N 35°27' E 139°40'0 0.0
2018-Apr-23 14:01N 35°27' E 139°40'0 0.0
2018-Apr-23 13:31N 35°27' E 139°40'0 0.0
2018-Apr-23 13:01N 35°27' E 139°40'0 0.0
2018-Apr-23 12:31N 35°27' E 139°40'0 0.0
2018-Apr-23 12:01N 35°27' E 139°40'0 0.0
2018-Apr-23 11:31N 35°27' E 139°40'0 0.0
2018-Apr-23 11:00N 35°27' E 139°40'0 0.0
2018-Apr-23 10:30N 35°27' E 139°40'0 0.0
2018-Apr-23 10:00N 35°27' E 139°40'0 0.0
2018-Apr-23 09:30N 35°27' E 139°40'0 1.0
2018-Apr-23 09:01N 35°27' E 139°41'0 0.7
2018-Apr-23 08:30N 35°26' E 139°41'1 1.3
2018-Apr-23 08:01N 35°27' E 139°40'0 0.0
2018-Apr-23 07:31N 35°27' E 139°40'0 0.0
2018-Apr-23 07:00N 35°27' E 139°40'0 0.0
2018-Apr-23 06:30N 35°27' E 139°40'0 0.0
2018-Apr-23 06:00N 35°27' E 139°40'0 0.0
2018-Apr-23 05:31N 35°27' E 139°40'0 0.0
2018-Apr-23 05:01N 35°27' E 139°40'0 0.0
2018-Apr-23 04:31N 35°27' E 139°40'0 0.0
2018-Apr-23 04:00N 35°27' E 139°40'0 0.0
2018-Apr-23 03:30N 35°27' E 139°40'0 0.0
2018-Apr-23 03:01N 35°27' E 139°40'0 0.0
2018-Apr-23 02:30N 35°27' E 139°40'0 0.0
2018-Apr-23 02:00N 35°27' E 139°40'0 0.0
2018-Apr-23 01:30N 35°27' E 139°40'0 0.0
2018-Apr-23 01:01N 35°27' E 139°40'0 0.0
2018-Apr-23 00:31N 35°27' E 139°40'0 0.0
2018-Apr-23 00:01N 35°27' E 139°40'0 0.0
2018-Apr-22 23:30N 35°27' E 139°40'1 1.4
2018-Apr-22 23:01N 35°27' E 139°40'3 6.8
2018-Apr-22 22:30N 35°30' E 139°43'1 1.9
2018-Apr-22 22:00N 35°29' E 139°42'3 5.6
2018-Apr-22 21:31N 35°27' E 139°44'2 4.2
2018-Apr-22 21:01N 35°27' E 139°41'1 1.7
2018-Apr-22 20:30N 35°27' E 139°40'0 0.0
2018-Apr-22 20:01N 35°27' E 139°40'0 0.0
2018-Apr-22 19:30N 35°27' E 139°40'0 0.0
2018-Apr-22 19:01N 35°27' E 139°40'0 0.0
2018-Apr-22 18:30N 35°27' E 139°40'0 0.0
2018-Apr-22 18:01N 35°27' E 139°40'0 0.0
2018-Apr-22 17:30N 35°27' E 139°40'0 0.0
2018-Apr-22 17:01N 35°27' E 139°40'0 0.0
2018-Apr-22 16:30N 35°27' E 139°40'0 0.0
2018-Apr-22 16:00N 35°27' E 139°40'0 0.0
2018-Apr-22 15:30N 35°27' E 139°40'0 0.0
2018-Apr-22 15:00N 35°27' E 139°40'0 0.0
2018-Apr-22 14:31N 35°27' E 139°40'0 0.0
2018-Apr-22 14:01N 35°27' E 139°40'0 0.0
2018-Apr-22 13:30N 35°27' E 139°40'0 0.0
2018-Apr-22 13:00N 35°27' E 139°40'0 0.0
2018-Apr-22 12:31N 35°27' E 139°40'0 0.0
2018-Apr-22 12:00N 35°27' E 139°40'0 0.0
2018-Apr-22 11:31N 35°27' E 139°40'0 0.0
2018-Apr-22 11:01N 35°27' E 139°40'0 0.0
2018-Apr-22 10:31N 35°27' E 139°40'0 0.0
2018-Apr-22 10:01N 35°27' E 139°40'0 0.0
2018-Apr-22 09:31N 35°27' E 139°40'0 0.0
2018-Apr-22 09:00N 35°27' E 139°40'0 0.0
2018-Apr-22 08:30N 35°27' E 139°40'0 0.0
2018-Apr-22 08:00N 35°27' E 139°40'1 2.3
2018-Apr-22 07:31N 35°27' E 139°42'4 8.1
2018-Apr-22 07:00N 35°29' E 139°46'1 1.3
2018-Apr-22 06:30N 35°30' E 139°46'2 3.8
2018-Apr-22 06:01N 35°28' E 139°45'4 7.8
2018-Apr-22 05:31N 35°27' E 139°40'0 0.1
2018-Apr-22 05:01N 35°27' E 139°40'0 0.0
2018-Apr-22 04:30N 35°27' E 139°40'0 0.0
2018-Apr-22 04:01N 35°27' E 139°40'0 0.0
2018-Apr-22 03:30N 35°27' E 139°40'0 0.0
2018-Apr-22 03:01N 35°27' E 139°40'0 0.0
2018-Apr-22 02:30N 35°27' E 139°40'2 3.5
2018-Apr-22 02:01N 35°25' E 139°42'1 2.7
2018-Apr-22 01:30N 35°24' E 139°41'0 0.8
2018-Apr-22 01:01N 35°24' E 139°41'1 2.9
2018-Apr-22 00:31N 35°23' E 139°42'1 1.5
2018-Apr-22 00:00N 35°24' E 139°42'3 6.6
2018-Apr-21 23:30N 35°27' E 139°40'0 0.1
2018-Apr-21 23:01N 35°27' E 139°40'0 0.0
2018-Apr-21 22:30N 35°27' E 139°40'0 0.0
2018-Apr-21 22:00N 35°27' E 139°40'0 0.0
2018-Apr-21 21:30N 35°27' E 139°40'0 0.0
2018-Apr-21 20:59N 35°27' E 139°40'0 0.0
2018-Apr-21 20:31N 35°27' E 139°40'0 0.0
2018-Apr-21 20:00N 35°27' E 139°40'0 0.0
2018-Apr-21 19:30N 35°27' E 139°40'0 0.0
2018-Apr-21 19:00N 35°27' E 139°40'0 0.0
2018-Apr-21 18:30N 35°27' E 139°40'0 0.0
2018-Apr-21 18:00N 35°27' E 139°40'0 0.0
2018-Apr-21 17:30N 35°27' E 139°40'0 0.0
2018-Apr-21 17:00N 35°27' E 139°40'0 0.0
2018-Apr-21 16:30N 35°27' E 139°40'0 0.0
2018-Apr-21 16:01N 35°27' E 139°40'0 0.0
2018-Apr-21 15:31N 35°27' E 139°40'0 0.0
2018-Apr-21 15:01N 35°27' E 139°40'0 0.0
2018-Apr-21 14:30N 35°27' E 139°40'0 0.0
2018-Apr-21 14:01N 35°27' E 139°40'0 0.0
2018-Apr-21 13:30N 35°27' E 139°40'0 0.0
2018-Apr-21 13:00N 35°27' E 139°40'0 0.0
2018-Apr-21 12:30N 35°27' E 139°40'0 0.0
2018-Apr-21 12:00N 35°27' E 139°40'0 0.0
2018-Apr-21 11:31N 35°27' E 139°40'0 0.0
2018-Apr-21 11:00N 35°27' E 139°40'0 0.0
2018-Apr-21 10:31N 35°27' E 139°40'0 0.0
2018-Apr-21 10:00N 35°27' E 139°40'0 0.0
2018-Apr-21 09:30N 35°27' E 139°40'0 0.0
2018-Apr-21 09:01N 35°27' E 139°40'0 0.0
2018-Apr-21 08:30N 35°27' E 139°40'0 0.0
2018-Apr-21 08:01N 35°27' E 139°40'0 0.0
2018-Apr-21 07:31N 35°27' E 139°40'0 0.0
2018-Apr-21 07:00N 35°27' E 139°40'0 0.0
2018-Apr-21 06:30N 35°27' E 139°40'0 0.0
2018-Apr-21 06:00N 35°27' E 139°40'0 0.0
2018-Apr-21 05:30N 35°27' E 139°40'0 0.0
2018-Apr-21 05:00N 35°27' E 139°40'0 0.0
2018-Apr-21 04:31N 35°27' E 139°40'0 0.0
2018-Apr-21 04:00N 35°27' E 139°40'0 0.0
2018-Apr-21 03:30N 35°27' E 139°40'0 0.0
2018-Apr-21 03:00N 35°27' E 139°40'0 0.0
2018-Apr-21 02:31N 35°27' E 139°40'0 0.0
2018-Apr-21 02:00N 35°27' E 139°40'0 0.0
2018-Apr-21 01:30N 35°27' E 139°40'0 0.0
2018-Apr-21 01:01N 35°27' E 139°40'0 0.0
2018-Apr-21 00:30N 35°27' E 139°40'0 0.0
2018-Apr-21 00:00N 35°27' E 139°40'0 0.0
2018-Apr-20 23:31N 35°27' E 139°40'0 0.0
2018-Apr-20 23:00N 35°27' E 139°40'0 0.0
2018-Apr-20 22:30N 35°27' E 139°40'0 0.0
2018-Apr-20 22:01N 35°27' E 139°40'0 0.0
2018-Apr-20 21:30N 35°27' E 139°40'0 0.0
2018-Apr-20 21:00N 35°27' E 139°40'0 0.0
2018-Apr-20 20:31N 35°27' E 139°40'0 0.0
2018-Apr-20 20:00N 35°27' E 139°40'0 0.0
2018-Apr-20 19:30N 35°27' E 139°40'0 0.0
2018-Apr-20 19:00N 35°27' E 139°40'0 0.0
2018-Apr-20 18:30N 35°27' E 139°40'0 0.0
2018-Apr-20 18:00N 35°27' E 139°40'0 0.0
2018-Apr-20 17:31N 35°27' E 139°40'0 0.0
2018-Apr-20 17:00N 35°27' E 139°40'0 0.0
2018-Apr-20 16:31N 35°27' E 139°40'0 0.0
2018-Apr-20 16:00N 35°27' E 139°40'0 0.0
2018-Apr-20 15:31N 35°27' E 139°40'0 0.0
2018-Apr-20 15:00N 35°27' E 139°40'0 0.0
2018-Apr-20 14:31N 35°27' E 139°40'0 0.0
2018-Apr-20 14:00N 35°27' E 139°40'0 0.0
2018-Apr-20 13:31N 35°27' E 139°40'0 0.0
2018-Apr-20 13:00N 35°27' E 139°40'0 0.0
2018-Apr-20 12:30N 35°27' E 139°40'0 0.0
2018-Apr-20 12:00N 35°27' E 139°40'0 0.0
2018-Apr-20 11:31N 35°27' E 139°40'0 0.0
2018-Apr-20 11:00N 35°27' E 139°40'0 0.0
2018-Apr-20 10:30N 35°27' E 139°40'0 0.0
2018-Apr-20 10:00N 35°27' E 139°40'0 0.0
2018-Apr-20 09:30N 35°27' E 139°40'0 0.0
2018-Apr-20 09:00N 35°27' E 139°40'0 0.0
2018-Apr-20 08:30N 35°27' E 139°40'0 0.0
2018-Apr-20 08:00N 35°27' E 139°40'0 0.0
2018-Apr-20 07:31N 35°27' E 139°40'0 0.0
2018-Apr-20 07:00N 35°27' E 139°40'0 0.0
2018-Apr-20 06:30N 35°27' E 139°40'0 0.0
2018-Apr-20 06:01N 35°27' E 139°40'0 0.0
2018-Apr-20 05:30N 35°27' E 139°40'0 0.0
2018-Apr-20 05:01N 35°27' E 139°40'0 0.0
2018-Apr-20 04:30N 35°27' E 139°40'0 0.0
2018-Apr-20 04:00N 35°27' E 139°40'0 0.0
2018-Apr-20 03:31N 35°27' E 139°40'0 0.0
2018-Apr-20 03:00N 35°27' E 139°40'0 0.0
2018-Apr-20 02:30N 35°27' E 139°40'0 0.0
2018-Apr-20 02:01N 35°27' E 139°40'0 0.0
2018-Apr-20 01:30N 35°27' E 139°40'0 0.0
2018-Apr-20 01:00N 35°27' E 139°40'0 0.0
2018-Apr-20 00:31N 35°27' E 139°40'0 0.0
2018-Apr-20 00:00N 35°27' E 139°40'0 0.0
2018-Apr-19 23:30N 35°27' E 139°40'1 1.3
2018-Apr-19 23:00N 35°26' E 139°41'1 1.6
2018-Apr-19 22:31N 35°27' E 139°42'1 1.5
2018-Apr-19 22:01N 35°26' E 139°42'0 0.9
2018-Apr-19 21:31N 35°26' E 139°42'0 0.0
2018-Apr-19 21:01N 35°26' E 139°42'2 3.5
2018-Apr-19 20:30N 35°28' E 139°42'0 0.8
2018-Apr-19 20:00N 35°28' E 139°42'0 0.9
2018-Apr-19 19:30N 35°28' E 139°42'0 0.0
2018-Apr-19 19:01N 35°28' E 139°42'0 0.0
2018-Apr-19 18:30N 35°28' E 139°42'0 0.0
2018-Apr-19 18:01N 35°28' E 139°42'0 0.0
2018-Apr-19 17:30N 35°28' E 139°42'0 0.0
2018-Apr-19 17:00N 35°28' E 139°42'0 0.0
2018-Apr-19 16:31N 35°28' E 139°42'0 0.0
2018-Apr-19 16:01N 35°28' E 139°42'0 0.1
2018-Apr-19 15:31N 35°28' E 139°42'1 1.0
2018-Apr-19 15:01N 35°28' E 139°42'0 0.1
2018-Apr-19 14:30N 35°28' E 139°42'1 1.0
2018-Apr-19 14:00N 35°28' E 139°42'0 0.0
2018-Apr-19 13:30N 35°28' E 139°42'0 0.0
2018-Apr-19 13:01N 35°28' E 139°42'0 0.0
2018-Apr-19 12:30N 35°28' E 139°42'0 0.0
2018-Apr-19 12:01N 35°28' E 139°42'0 0.0
2018-Apr-19 11:30N 35°28' E 139°42'0 0.0
2018-Apr-19 11:01N 35°28' E 139°42'2 3.5
2018-Apr-19 10:30N 35°26' E 139°41'1 1.4
2018-Apr-19 10:01N 35°27' E 139°41'2 4.3
2018-Apr-19 09:31N 35°26' E 139°44'1 2.2
2018-Apr-19 09:00N 35°27' E 139°44'2 3.0
2018-Apr-19 08:31N 35°27' E 139°43'4 7.2
2018-Apr-19 08:00N 35°24' E 139°41'0 0.9
2018-Apr-19 07:30N 35°24' E 139°41'0 0.0
2018-Apr-19 07:01N 35°24' E 139°41'2 3.9
2018-Apr-19 06:30N 35°26' E 139°42'1 2.4
2018-Apr-19 06:01N 35°27' E 139°42'0 0.0
2018-Apr-19 05:30N 35°27' E 139°42'0 0.0
2018-Apr-19 05:01N 35°27' E 139°42'0 0.0
2018-Apr-19 04:31N 35°27' E 139°42'0 0.0
2018-Apr-19 04:01N 35°27' E 139°42'0 0.0
2018-Apr-19 03:30N 35°27' E 139°42'0 0.0
2018-Apr-19 03:00N 35°27' E 139°42'3 5.2
2018-Apr-19 02:31N 35°27' E 139°39'4 8.2
2018-Apr-19 02:01N 35°29' E 139°43'3 6.1
2018-Apr-19 01:31N 35°31' E 139°46'1 2.0
2018-Apr-19 01:00N 35°30' E 139°45'4 7.1
2018-Apr-19 00:30N 35°27' E 139°43'1 2.1
2018-Apr-19 00:00N 35°28' E 139°44'2 4.8
2018-Apr-18 23:30N 35°27' E 139°41'1 3.0
2018-Apr-18 23:00N 35°27' E 139°39'0 0.0
2018-Apr-18 22:30N 35°27' E 139°39'1 2.8
2018-Apr-18 22:01N 35°27' E 139°41'2 4.3
2018-Apr-18 21:30N 35°26' E 139°43'0 0.2
2018-Apr-18 21:00N 35°26' E 139°43'3 5.1
2018-Apr-18 20:31N 35°27' E 139°40'0 0.0
2018-Apr-18 20:01N 35°27' E 139°40'0 0.0
2018-Apr-18 19:30N 35°27' E 139°40'0 0.0
2018-Apr-18 19:00N 35°27' E 139°40'0 0.0
2018-Apr-18 18:31N 35°27' E 139°40'0 0.0
2018-Apr-18 18:00N 35°27' E 139°40'0 0.0
2018-Apr-18 17:31N 35°27' E 139°40'0 0.0
2018-Apr-18 17:00N 35°27' E 139°40'0 0.0
2018-Apr-18 16:30N 35°27' E 139°40'0 0.0
2018-Apr-18 16:01N 35°27' E 139°40'0 0.0
2018-Apr-18 15:31N 35°27' E 139°40'0 0.0
2018-Apr-18 15:01N 35°27' E 139°40'0 0.0
2018-Apr-18 14:31N 35°27' E 139°40'0 0.0
2018-Apr-18 14:00N 35°27' E 139°40'0 0.0
2018-Apr-18 13:30N 35°27' E 139°40'0 0.0
2018-Apr-18 13:00N 35°27' E 139°40'0 0.0
2018-Apr-18 12:31N 35°27' E 139°40'0 0.0
2018-Apr-18 12:01N 35°27' E 139°40'0 0.0
2018-Apr-18 11:31N 35°27' E 139°40'0 0.0
2018-Apr-18 11:01N 35°27' E 139°40'0 0.0
2018-Apr-18 10:31N 35°27' E 139°40'0 0.0
2018-Apr-18 10:01N 35°27' E 139°40'2 3.5
2018-Apr-18 09:30N 35°28' E 139°42'0 0.9
2018-Apr-18 09:00N 35°28' E 139°42'1 2.0
2018-Apr-18 08:30N 35°27' E 139°43'1 1.8
2018-Apr-18 08:01N 35°28' E 139°42'0 0.0
2018-Apr-18 07:31N 35°28' E 139°42'0 0.0
2018-Apr-18 07:00N 35°28' E 139°42'0 0.0
2018-Apr-18 06:31N 35°28' E 139°42'0 0.1
2018-Apr-18 06:00N 35°28' E 139°42'0 0.1
2018-Apr-18 05:30N 35°28' E 139°42'0 0.0
2018-Apr-18 05:00N 35°28' E 139°42'0 0.1
2018-Apr-18 04:30N 35°28' E 139°42'4 7.3
2018-Apr-18 04:00N 35°30' E 139°45'0 1.0
2018-Apr-18 03:30N 35°30' E 139°45'1 1.2
2018-Apr-18 03:01N 35°30' E 139°44'3 5.2
2018-Apr-18 02:30N 35°28' E 139°42'2 3.7
2018-Apr-18 02:01N 35°27' E 139°40'0 0.0
2018-Apr-18 01:30N 35°27' E 139°40'0 0.0
2018-Apr-18 01:01N 35°27' E 139°40'0 0.0
2018-Apr-18 00:31N 35°27' E 139°40'0 0.0
2018-Apr-18 00:00N 35°27' E 139°40'0 0.0
2018-Apr-17 23:31N 35°27' E 139°40'0 0.0
2018-Apr-17 23:00N 35°27' E 139°40'0 0.0
2018-Apr-17 22:31N 35°27' E 139°40'0 0.0
2018-Apr-17 22:01N 35°27' E 139°40'0 0.0
2018-Apr-17 21:31N 35°27' E 139°40'0 0.0
2018-Apr-17 21:01N 35°27' E 139°40'0 0.0
2018-Apr-17 20:31N 35°27' E 139°40'0 0.0
2018-Apr-17 20:01N 35°27' E 139°40'0 0.0
2018-Apr-17 19:31N 35°27' E 139°40'0 0.0
2018-Apr-17 19:01N 35°27' E 139°40'0 0.0
2018-Apr-17 18:30N 35°27' E 139°40'0 0.0
2018-Apr-17 18:01N 35°27' E 139°40'0 0.0
2018-Apr-17 17:31N 35°27' E 139°40'0 0.0
2018-Apr-17 17:00N 35°27' E 139°40'0 0.0
2018-Apr-17 16:31N 35°27' E 139°40'0 0.0
2018-Apr-17 16:01N 35°27' E 139°40'0 0.0
2018-Apr-17 15:31N 35°27' E 139°40'0 0.0
2018-Apr-17 15:01N 35°27' E 139°40'0 0.0
2018-Apr-17 14:30N 35°27' E 139°40'0 0.0
2018-Apr-17 14:01N 35°27' E 139°40'0 0.0
2018-Apr-17 13:31N 35°27' E 139°40'0 0.0
2018-Apr-17 13:00N 35°27' E 139°40'0 0.0
2018-Apr-17 12:31N 35°27' E 139°40'0 0.0
2018-Apr-17 12:01N 35°27' E 139°40'0 0.0
2018-Apr-17 11:30N 35°27' E 139°40'0 0.0
2018-Apr-17 11:01N 35°27' E 139°40'0 0.0
2018-Apr-17 10:30N 35°27' E 139°40'0 0.0
2018-Apr-17 10:00N 35°27' E 139°40'0 0.0
2018-Apr-17 09:31N 35°27' E 139°40'0 0.0
2018-Apr-17 09:01N 35°27' E 139°40'0 0.0
2018-Apr-17 08:30N 35°27' E 139°40'0 0.0
2018-Apr-17 08:01N 35°27' E 139°40'0 0.0
2018-Apr-17 07:31N 35°27' E 139°40'0 0.0
2018-Apr-17 07:00N 35°27' E 139°40'0 0.0
2018-Apr-17 06:31N 35°27' E 139°40'0 0.0
2018-Apr-17 06:01N 35°27' E 139°40'0 0.0
2018-Apr-17 05:31N 35°27' E 139°40'0 0.0
2018-Apr-17 05:00N 35°27' E 139°40'0 0.0
2018-Apr-17 04:30N 35°27' E 139°40'0 0.0
2018-Apr-17 04:00N 35°27' E 139°40'0 0.0
2018-Apr-17 03:30N 35°27' E 139°40'0 0.0
2018-Apr-17 03:01N 35°27' E 139°40'0 0.0
2018-Apr-17 02:31N 35°27' E 139°40'0 0.0
2018-Apr-17 02:01N 35°27' E 139°40'0 0.0
2018-Apr-17 01:31N 35°27' E 139°40'0 0.0
2018-Apr-17 01:00N 35°27' E 139°40'0 0.0
2018-Apr-17 00:31N 35°27' E 139°40'0 0.0
2018-Apr-17 00:01N 35°27' E 139°40'0 0.0
2018-Apr-16 23:30N 35°27' E 139°40'0 0.0
2018-Apr-16 23:00N 35°27' E 139°40'0 0.0
2018-Apr-16 22:30N 35°27' E 139°40'0 0.0
2018-Apr-16 22:00N 35°27' E 139°40'0 0.1
2018-Apr-16 21:31N 35°27' E 139°40'3 6.2
2018-Apr-16 21:00N 35°24' E 139°41'1 1.1
2018-Apr-16 20:30N 35°24' E 139°41'0 0.2
2018-Apr-16 20:01N 35°24' E 139°41'0 0.6
2018-Apr-16 19:30N 35°24' E 139°41'0 0.2
2018-Apr-16 19:01N 35°24' E 139°41'1 2.6
2018-Apr-16 18:30N 35°25' E 139°42'3 5.4
2018-Apr-16 18:01N 35°28' E 139°41'0 0.0
2018-Apr-16 17:30N 35°28' E 139°41'0 0.0
2018-Apr-16 17:00N 35°28' E 139°41'0 0.0
2018-Apr-16 16:30N 35°28' E 139°41'0 0.0
2018-Apr-16 16:01N 35°28' E 139°41'0 0.0
2018-Apr-16 15:30N 35°28' E 139°41'0 0.0
2018-Apr-16 15:00N 35°28' E 139°41'0 0.0
2018-Apr-16 14:30N 35°28' E 139°41'0 0.0
2018-Apr-16 14:01N 35°28' E 139°41'0 0.6
2018-Apr-16 13:31N 35°27' E 139°40'4 7.8
2018-Apr-16 13:00N 35°23' E 139°41'0 1.0
2018-Apr-16 12:30N 35°24' E 139°41'2 4.1
2018-Apr-16 12:00N 35°22' E 139°42'1 2.4
2018-Apr-16 11:31N 35°23' E 139°41'1 2.3
2018-Apr-16 11:01N 35°24' E 139°41'0 0.4
2018-Apr-16 10:30N 35°24' E 139°41'0 0.0
2018-Apr-16 10:00N 35°24' E 139°41'1 2.3
2018-Apr-16 09:30N 35°23' E 139°40'0 0.5
2018-Apr-16 09:01N 35°23' E 139°41'2 4.1
2018-Apr-16 08:30N 35°25' E 139°41'0 0.5
2018-Apr-16 08:00N 35°25' E 139°41'1 2.9
2018-Apr-16 07:31N 35°27' E 139°41'1 1.4
2018-Apr-16 07:01N 35°27' E 139°41'0 0.0
2018-Apr-16 06:31N 35°27' E 139°41'0 0.0
2018-Apr-16 06:01N 35°27' E 139°41'0 0.0
2018-Apr-16 05:31N 35°27' E 139°41'0 0.0
2018-Apr-16 05:00N 35°27' E 139°41'0 0.0
2018-Apr-16 04:30N 35°27' E 139°41'0 0.0
2018-Apr-16 04:01N 35°27' E 139°41'0 0.0
2018-Apr-16 03:31N 35°27' E 139°41'0 0.0
2018-Apr-16 03:01N 35°27' E 139°41'0 0.0
2018-Apr-16 02:30N 35°27' E 139°41'0 0.0
2018-Apr-16 02:01N 35°27' E 139°41'0 0.0
2018-Apr-16 01:31N 35°27' E 139°41'0 0.0
2018-Apr-16 01:01N 35°27' E 139°41'0 0.0
2018-Apr-16 00:31N 35°27' E 139°41'3 5.1
2018-Apr-16 00:01N 35°24' E 139°42'1 2.0
2018-Apr-15 23:31N 35°24' E 139°41'0 0.3
2018-Apr-15 23:01N 35°24' E 139°41'1 2.5
2018-Apr-15 22:30N 35°23' E 139°41'0 0.9
2018-Apr-15 22:01N 35°23' E 139°41'3 5.6
2018-Apr-15 21:31N 35°26' E 139°42'1 2.3
2018-Apr-15 21:00N 35°27' E 139°40'0 0.0
2018-Apr-15 20:31N 35°27' E 139°40'0 0.0
2018-Apr-15 20:01N 35°27' E 139°40'0 0.0
2018-Apr-15 19:31N 35°27' E 139°40'0 0.0
2018-Apr-15 19:01N 35°27' E 139°40'0 0.0
2018-Apr-15 18:30N 35°27' E 139°40'0 0.0
2018-Apr-15 18:01N 35°27' E 139°40'0 0.0
2018-Apr-15 17:31N 35°27' E 139°40'0 0.0
2018-Apr-15 17:01N 35°27' E 139°40'0 0.0
2018-Apr-15 16:30N 35°27' E 139°40'0 0.0
2018-Apr-15 16:01N 35°27' E 139°40'0 0.0
2018-Apr-15 15:31N 35°27' E 139°40'0 0.0
2018-Apr-15 15:00N 35°27' E 139°40'0 0.0
2018-Apr-15 14:31N 35°27' E 139°40'0 0.0
2018-Apr-15 14:00N 35°27' E 139°40'0 0.0
2018-Apr-15 13:30N 35°27' E 139°40'0 0.0
2018-Apr-15 13:00N 35°27' E 139°40'0 0.0
2018-Apr-15 12:31N 35°27' E 139°40'0 0.0
2018-Apr-15 12:01N 35°27' E 139°40'0 0.0
2018-Apr-15 11:30N 35°27' E 139°40'0 0.0
2018-Apr-15 11:01N 35°27' E 139°40'0 0.0
2018-Apr-15 10:30N 35°27' E 139°40'0 0.0
2018-Apr-15 10:01N 35°27' E 139°40'0 0.0
2018-Apr-15 09:31N 35°27' E 139°40'0 0.0
2018-Apr-15 09:01N 35°27' E 139°40'0 0.0
2018-Apr-15 08:30N 35°27' E 139°40'0 0.0
2018-Apr-15 08:01N 35°27' E 139°40'0 0.1
2018-Apr-15 07:31N 35°27' E 139°40'5 9.2
2018-Apr-15 07:00N 35°29' E 139°45'0 0.3
2018-Apr-15 06:31N 35°29' E 139°45'2 3.5
2018-Apr-15 06:01N 35°28' E 139°46'0 0.7
2018-Apr-15 05:31N 35°28' E 139°46'4 8.9
2018-Apr-15 05:00N 35°27' E 139°41'2 4.2
2018-Apr-15 04:30N 35°28' E 139°38'0 0.0
2018-Apr-15 04:00N 35°28' E 139°38'0 0.0
2018-Apr-15 03:30N 35°28' E 139°38'0 0.0
2018-Apr-15 03:01N 35°28' E 139°38'0 0.0
2018-Apr-15 02:31N 35°28' E 139°38'0 0.0
2018-Apr-15 02:00N 35°28' E 139°38'0 0.0
2018-Apr-15 01:30N 35°28' E 139°38'0 0.0
2018-Apr-15 01:01N 35°28' E 139°38'0 0.0
2018-Apr-15 00:30N 35°28' E 139°38'0 0.0
2018-Apr-15 00:01N 35°28' E 139°38'0 0.0
2018-Apr-14 23:30N 35°28' E 139°38'0 0.0
2018-Apr-14 23:00N 35°28' E 139°38'0 0.0
2018-Apr-14 22:30N 35°28' E 139°38'0 0.0
2018-Apr-14 22:01N 35°28' E 139°38'0 0.0
2018-Apr-14 21:30N 35°28' E 139°38'0 0.0
2018-Apr-14 21:01N 35°28' E 139°38'0 0.0
2018-Apr-14 20:30N 35°28' E 139°38'0 0.0
2018-Apr-14 20:00N 35°28' E 139°38'0 0.0
2018-Apr-14 19:30N 35°28' E 139°38'0 0.0
2018-Apr-14 19:01N 35°28' E 139°38'0 0.0
2018-Apr-14 18:30N 35°28' E 139°38'0 0.0
2018-Apr-14 18:00N 35°28' E 139°38'0 0.0
2018-Apr-14 17:31N 35°28' E 139°38'0 0.0
2018-Apr-14 17:00N 35°28' E 139°38'0 0.0
2018-Apr-14 16:30N 35°28' E 139°38'0 0.0
2018-Apr-14 16:00N 35°28' E 139°38'0 0.0
2018-Apr-14 15:31N 35°28' E 139°38'0 0.0
2018-Apr-14 15:00N 35°28' E 139°38'0 0.0
2018-Apr-14 14:31N 35°28' E 139°38'0 0.0
2018-Apr-14 14:01N 35°28' E 139°38'0 0.0
2018-Apr-14 13:30N 35°28' E 139°38'0 0.0
2018-Apr-14 13:01N 35°28' E 139°38'0 0.0
2018-Apr-14 12:31N 35°28' E 139°38'  
Track history (hours):
 
Tides and Currents Weather Stations Pressure Air Temp Water Temp Dewpoint Dewpoint Depression Visibility Wind Speed Wind Dir Waves Ship Positions

Daian

Last reported at 2018-Apr-24 12:31 UTC. Time now 2018-Apr-24 12:40 UTC.
Position N 35°27' E 139°40'.

Length 42 m; draft 3.8 m.

Type: Tug. MMSI: 431010253.

Date/timePositionNaut miles runAvg speedWind from/ knotsBaromVisibWave heightAir tempDewpointWater temp
2018-Apr-24 12:31N 35°27' E 139°40'0 0.0
2018-Apr-24 12:01N 35°27' E 139°40'0 0.0
2018-Apr-24 11:31N 35°27' E 139°40'0 0.0
2018-Apr-24 11:01N 35°27' E 139°40'0 0.0
2018-Apr-24 10:31N 35°27' E 139°40'0 0.0
2018-Apr-24 10:00N 35°27' E 139°40'0 0.0
2018-Apr-24 09:30N 35°27' E 139°40'0 0.0
2018-Apr-24 09:01N 35°27' E 139°40'0 0.0
2018-Apr-24 08:30N 35°27' E 139°40'0 0.0
2018-Apr-24 08:00N 35°27' E 139°40'0 0.0
2018-Apr-24 07:31N 35°27' E 139°40'0 0.0
2018-Apr-24 07:01N 35°27' E 139°40'0 0.0
2018-Apr-24 06:30N 35°27' E 139°40'0 0.0
2018-Apr-24 06:01N 35°27' E 139°40'0 0.0
2018-Apr-24 05:30N 35°27' E 139°40'0 0.0
2018-Apr-24 05:00N 35°27' E 139°40'0 0.0
2018-Apr-24 04:31N 35°27' E 139°40'0 0.0
2018-Apr-24 04:00N 35°27' E 139°40'0 0.0
2018-Apr-24 03:31N 35°27' E 139°40'0 0.0
2018-Apr-24 03:01N 35°27' E 139°40'0 0.0
2018-Apr-24 02:31N 35°27' E 139°40'0 0.0
2018-Apr-24 02:00N 35°27' E 139°40'0 0.0
2018-Apr-24 01:30N 35°27' E 139°40'0 0.0
2018-Apr-24 01:01N 35°27' E 139°40'0 0.0
2018-Apr-24 00:30N 35°27' E 139°40'0 0.0
2018-Apr-24 00:01N 35°27' E 139°40'1 1.5
2018-Apr-23 23:30N 35°27' E 139°40'2 3.6
2018-Apr-23 23:00N 35°29' E 139°42'4 7.0
2018-Apr-23 22:30N 35°31' E 139°45'1 1.5
2018-Apr-23 22:00N 35°30' E 139°44'2 5.0
2018-Apr-23 21:30N 35°28' E 139°42'0 0.1
2018-Apr-23 21:01N 35°28' E 139°42'1 2.6
2018-Apr-23 20:31N 35°27' E 139°42'0 0.0
2018-Apr-23 20:00N 35°27' E 139°42'1 2.6
2018-Apr-23 19:31N 35°26' E 139°41'1 1.1
2018-Apr-23 19:01N 35°27' E 139°40'0 0.0
2018-Apr-23 18:31N 35°27' E 139°40'0 0.0
2018-Apr-23 18:01N 35°27' E 139°40'0 0.0
2018-Apr-23 17:30N 35°27' E 139°40'0 0.0
2018-Apr-23 17:01N 35°27' E 139°40'0 0.0
2018-Apr-23 16:30N 35°27' E 139°40'0 0.0
2018-Apr-23 16:00N 35°27' E 139°40'0 0.0
2018-Apr-23 15:31N 35°27' E 139°40'0 0.0
2018-Apr-23 15:00N 35°27' E 139°40'0 0.0
2018-Apr-23 14:30N 35°27' E 139°40'0 0.0
2018-Apr-23 14:01N 35°27' E 139°40'0 0.0
2018-Apr-23 13:31N 35°27' E 139°40'0 0.0
2018-Apr-23 13:01N 35°27' E 139°40'0 0.0
2018-Apr-23 12:31N 35°27' E 139°40'0 0.0
2018-Apr-23 12:01N 35°27' E 139°40'0 0.0
2018-Apr-23 11:31N 35°27' E 139°40'0 0.0
2018-Apr-23 11:00N 35°27' E 139°40'0 0.0
2018-Apr-23 10:30N 35°27' E 139°40'0 0.0
2018-Apr-23 10:00N 35°27' E 139°40'0 0.0
2018-Apr-23 09:30N 35°27' E 139°40'0 1.0
2018-Apr-23 09:01N 35°27' E 139°41'0 0.7
2018-Apr-23 08:30N 35°26' E 139°41'1 1.3
2018-Apr-23 08:01N 35°27' E 139°40'0 0.0
2018-Apr-23 07:31N 35°27' E 139°40'0 0.0
2018-Apr-23 07:00N 35°27' E 139°40'0 0.0
2018-Apr-23 06:30N 35°27' E 139°40'0 0.0
2018-Apr-23 06:00N 35°27' E 139°40'0 0.0
2018-Apr-23 05:31N 35°27' E 139°40'0 0.0
2018-Apr-23 05:01N 35°27' E 139°40'0 0.0
2018-Apr-23 04:31N 35°27' E 139°40'0 0.0
2018-Apr-23 04:00N 35°27' E 139°40'0 0.0
2018-Apr-23 03:30N 35°27' E 139°40'0 0.0
2018-Apr-23 03:01N 35°27' E 139°40'0 0.0
2018-Apr-23 02:30N 35°27' E 139°40'0 0.0
2018-Apr-23 02:00N 35°27' E 139°40'0 0.0
2018-Apr-23 01:30N 35°27' E 139°40'0 0.0
2018-Apr-23 01:01N 35°27' E 139°40'0 0.0
2018-Apr-23 00:31N 35°27' E 139°40'0 0.0
2018-Apr-23 00:01N 35°27' E 139°40'0 0.0
2018-Apr-22 23:30N 35°27' E 139°40'1 1.4
2018-Apr-22 23:01N 35°27' E 139°40'3 6.8
2018-Apr-22 22:30N 35°30' E 139°43'1 1.9
2018-Apr-22 22:00N 35°29' E 139°42'3 5.6
2018-Apr-22 21:31N 35°27' E 139°44'2 4.2
2018-Apr-22 21:01N 35°27' E 139°41'1 1.7
2018-Apr-22 20:30N 35°27' E 139°40'0 0.0
2018-Apr-22 20:01N 35°27' E 139°40'0 0.0
2018-Apr-22 19:30N 35°27' E 139°40'0 0.0
2018-Apr-22 19:01N 35°27' E 139°40'0 0.0
2018-Apr-22 18:30N 35°27' E 139°40'0 0.0
2018-Apr-22 18:01N 35°27' E 139°40'0 0.0
2018-Apr-22 17:30N 35°27' E 139°40'0 0.0
2018-Apr-22 17:01N 35°27' E 139°40'0 0.0
2018-Apr-22 16:30N 35°27' E 139°40'0 0.0
2018-Apr-22 16:00N 35°27' E 139°40'0 0.0
2018-Apr-22 15:30N 35°27' E 139°40'0 0.0
2018-Apr-22 15:00N 35°27' E 139°40'0 0.0
2018-Apr-22 14:31N 35°27' E 139°40'0 0.0
2018-Apr-22 14:01N 35°27' E 139°40'0 0.0
2018-Apr-22 13:30N 35°27' E 139°40'0 0.0
2018-Apr-22 13:00N 35°27' E 139°40'0 0.0
2018-Apr-22 12:31N 35°27' E 139°40'0 0.0
2018-Apr-22 12:00N 35°27' E 139°40'0 0.0
2018-Apr-22 11:31N 35°27' E 139°40'0 0.0
2018-Apr-22 11:01N 35°27' E 139°40'0 0.0
2018-Apr-22 10:31N 35°27' E 139°40'0 0.0
2018-Apr-22 10:01N 35°27' E 139°40'0 0.0
2018-Apr-22 09:31N 35°27' E 139°40'0 0.0
2018-Apr-22 09:00N 35°27' E 139°40'0 0.0
2018-Apr-22 08:30N 35°27' E 139°40'0 0.0
2018-Apr-22 08:00N 35°27' E 139°40'1 2.3
2018-Apr-22 07:31N 35°27' E 139°42'4 8.1
2018-Apr-22 07:00N 35°29' E 139°46'1 1.3
2018-Apr-22 06:30N 35°30' E 139°46'2 3.8
2018-Apr-22 06:01N 35°28' E 139°45'4 7.8
2018-Apr-22 05:31N 35°27' E 139°40'0 0.1
2018-Apr-22 05:01N 35°27' E 139°40'0 0.0
2018-Apr-22 04:30N 35°27' E 139°40'0 0.0
2018-Apr-22 04:01N 35°27' E 139°40'0 0.0
2018-Apr-22 03:30N 35°27' E 139°40'0 0.0
2018-Apr-22 03:01N 35°27' E 139°40'0 0.0
2018-Apr-22 02:30N 35°27' E 139°40'2 3.5
2018-Apr-22 02:01N 35°25' E 139°42'1 2.7
2018-Apr-22 01:30N 35°24' E 139°41'0 0.8
2018-Apr-22 01:01N 35°24' E 139°41'1 2.9
2018-Apr-22 00:31N 35°23' E 139°42'1 1.5
2018-Apr-22 00:00N 35°24' E 139°42'3 6.6
2018-Apr-21 23:30N 35°27' E 139°40'0 0.1
2018-Apr-21 23:01N 35°27' E 139°40'0 0.0
2018-Apr-21 22:30N 35°27' E 139°40'0 0.0
2018-Apr-21 22:00N 35°27' E 139°40'0 0.0
2018-Apr-21 21:30N 35°27' E 139°40'0 0.0
2018-Apr-21 20:59N 35°27' E 139°40'0 0.0
2018-Apr-21 20:31N 35°27' E 139°40'0 0.0
2018-Apr-21 20:00N 35°27' E 139°40'0 0.0
2018-Apr-21 19:30N 35°27' E 139°40'0 0.0
2018-Apr-21 19:00N 35°27' E 139°40'0 0.0
2018-Apr-21 18:30N 35°27' E 139°40'0 0.0
2018-Apr-21 18:00N 35°27' E 139°40'0 0.0
2018-Apr-21 17:30N 35°27' E 139°40'0 0.0
2018-Apr-21 17:00N 35°27' E 139°40'0 0.0
2018-Apr-21 16:30N 35°27' E 139°40'0 0.0
2018-Apr-21 16:01N 35°27' E 139°40'0 0.0
2018-Apr-21 15:31N 35°27' E 139°40'0 0.0
2018-Apr-21 15:01N 35°27' E 139°40'0 0.0
2018-Apr-21 14:30N 35°27' E 139°40'0 0.0
2018-Apr-21 14:01N 35°27' E 139°40'0 0.0
2018-Apr-21 13:30N 35°27' E 139°40'0 0.0
2018-Apr-21 13:00N 35°27' E 139°40'0 0.0
2018-Apr-21 12:30N 35°27' E 139°40'0 0.0
2018-Apr-21 12:00N 35°27' E 139°40'0 0.0
2018-Apr-21 11:31N 35°27' E 139°40'0 0.0
2018-Apr-21 11:00N 35°27' E 139°40'0 0.0
2018-Apr-21 10:31N 35°27' E 139°40'0 0.0
2018-Apr-21 10:00N 35°27' E 139°40'0 0.0
2018-Apr-21 09:30N 35°27' E 139°40'0 0.0
2018-Apr-21 09:01N 35°27' E 139°40'0 0.0
2018-Apr-21 08:30N 35°27' E 139°40'0 0.0
2018-Apr-21 08:01N 35°27' E 139°40'0 0.0
2018-Apr-21 07:31N 35°27' E 139°40'0 0.0
2018-Apr-21 07:00N 35°27' E 139°40'0 0.0
2018-Apr-21 06:30N 35°27' E 139°40'0 0.0
2018-Apr-21 06:00N 35°27' E 139°40'0 0.0
2018-Apr-21 05:30N 35°27' E 139°40'0 0.0
2018-Apr-21 05:00N 35°27' E 139°40'0 0.0
2018-Apr-21 04:31N 35°27' E 139°40'0 0.0
2018-Apr-21 04:00N 35°27' E 139°40'0 0.0
2018-Apr-21 03:30N 35°27' E 139°40'0 0.0
2018-Apr-21 03:00N 35°27' E 139°40'0 0.0
2018-Apr-21 02:31N 35°27' E 139°40'0 0.0
2018-Apr-21 02:00N 35°27' E 139°40'0 0.0
2018-Apr-21 01:30N 35°27' E 139°40'0 0.0
2018-Apr-21 01:01N 35°27' E 139°40'0 0.0
2018-Apr-21 00:30N 35°27' E 139°40'0 0.0
2018-Apr-21 00:00N 35°27' E 139°40'0 0.0
2018-Apr-20 23:31N 35°27' E 139°40'0 0.0
2018-Apr-20 23:00N 35°27' E 139°40'0 0.0
2018-Apr-20 22:30N 35°27' E 139°40'0 0.0
2018-Apr-20 22:01N 35°27' E 139°40'0 0.0
2018-Apr-20 21:30N 35°27' E 139°40'0 0.0
2018-Apr-20 21:00N 35°27' E 139°40'0 0.0
2018-Apr-20 20:31N 35°27' E 139°40'0 0.0
2018-Apr-20 20:00N 35°27' E 139°40'0 0.0
2018-Apr-20 19:30N 35°27' E 139°40'0 0.0
2018-Apr-20 19:00N 35°27' E 139°40'0 0.0
2018-Apr-20 18:30N 35°27' E 139°40'0 0.0
2018-Apr-20 18:00N 35°27' E 139°40'0 0.0
2018-Apr-20 17:31N 35°27' E 139°40'0 0.0
2018-Apr-20 17:00N 35°27' E 139°40'0 0.0
2018-Apr-20 16:31N 35°27' E 139°40'0 0.0
2018-Apr-20 16:00N 35°27' E 139°40'0 0.0
2018-Apr-20 15:31N 35°27' E 139°40'0 0.0
2018-Apr-20 15:00N 35°27' E 139°40'0 0.0
2018-Apr-20 14:31N 35°27' E 139°40'0 0.0
2018-Apr-20 14:00N 35°27' E 139°40'0 0.0
2018-Apr-20 13:31N 35°27' E 139°40'0 0.0
2018-Apr-20 13:00N 35°27' E 139°40'0 0.0
2018-Apr-20 12:30N 35°27' E 139°40'0 0.0
2018-Apr-20 12:00N 35°27' E 139°40'0 0.0
2018-Apr-20 11:31N 35°27' E 139°40'0 0.0
2018-Apr-20 11:00N 35°27' E 139°40'0 0.0
2018-Apr-20 10:30N 35°27' E 139°40'0 0.0
2018-Apr-20 10:00N 35°27' E 139°40'0 0.0
2018-Apr-20 09:30N 35°27' E 139°40'0 0.0
2018-Apr-20 09:00N 35°27' E 139°40'0 0.0
2018-Apr-20 08:30N 35°27' E 139°40'0 0.0
2018-Apr-20 08:00N 35°27' E 139°40'0 0.0
2018-Apr-20 07:31N 35°27' E 139°40'0 0.0
2018-Apr-20 07:00N 35°27' E 139°40'0 0.0
2018-Apr-20 06:30N 35°27' E 139°40'0 0.0
2018-Apr-20 06:01N 35°27' E 139°40'0 0.0
2018-Apr-20 05:30N 35°27' E 139°40'0 0.0
2018-Apr-20 05:01N 35°27' E 139°40'0 0.0
2018-Apr-20 04:30N 35°27' E 139°40'0 0.0
2018-Apr-20 04:00N 35°27' E 139°40'0 0.0
2018-Apr-20 03:31N 35°27' E 139°40'0 0.0
2018-Apr-20 03:00N 35°27' E 139°40'0 0.0
2018-Apr-20 02:30N 35°27' E 139°40'0 0.0
2018-Apr-20 02:01N 35°27' E 139°40'0 0.0
2018-Apr-20 01:30N 35°27' E 139°40'0 0.0
2018-Apr-20 01:00N 35°27' E 139°40'0 0.0
2018-Apr-20 00:31N 35°27' E 139°40'0 0.0
2018-Apr-20 00:00N 35°27' E 139°40'0 0.0
2018-Apr-19 23:30N 35°27' E 139°40'1 1.3
2018-Apr-19 23:00N 35°26' E 139°41'1 1.6
2018-Apr-19 22:31N 35°27' E 139°42'1 1.5
2018-Apr-19 22:01N 35°26' E 139°42'0 0.9
2018-Apr-19 21:31N 35°26' E 139°42'0 0.0
2018-Apr-19 21:01N 35°26' E 139°42'2 3.5
2018-Apr-19 20:30N 35°28' E 139°42'0 0.8
2018-Apr-19 20:00N 35°28' E 139°42'0 0.9
2018-Apr-19 19:30N 35°28' E 139°42'0 0.0
2018-Apr-19 19:01N 35°28' E 139°42'0 0.0
2018-Apr-19 18:30N 35°28' E 139°42'0 0.0
2018-Apr-19 18:01N 35°28' E 139°42'0 0.0
2018-Apr-19 17:30N 35°28' E 139°42'0 0.0
2018-Apr-19 17:00N 35°28' E 139°42'0 0.0
2018-Apr-19 16:31N 35°28' E 139°42'0 0.0
2018-Apr-19 16:01N 35°28' E 139°42'0 0.1
2018-Apr-19 15:31N 35°28' E 139°42'1 1.0
2018-Apr-19 15:01N 35°28' E 139°42'0 0.1
2018-Apr-19 14:30N 35°28' E 139°42'1 1.0
2018-Apr-19 14:00N 35°28' E 139°42'0 0.0
2018-Apr-19 13:30N 35°28' E 139°42'0 0.0
2018-Apr-19 13:01N 35°28' E 139°42'0 0.0
2018-Apr-19 12:30N 35°28' E 139°42'0 0.0
2018-Apr-19 12:01N 35°28' E 139°42'0 0.0
2018-Apr-19 11:30N 35°28' E 139°42'0 0.0
2018-Apr-19 11:01N 35°28' E 139°42'2 3.5
2018-Apr-19 10:30N 35°26' E 139°41'1 1.4
2018-Apr-19 10:01N 35°27' E 139°41'2 4.3
2018-Apr-19 09:31N 35°26' E 139°44'1 2.2
2018-Apr-19 09:00N 35°27' E 139°44'2 3.0
2018-Apr-19 08:31N 35°27' E 139°43'4 7.2
2018-Apr-19 08:00N 35°24' E 139°41'0 0.9
2018-Apr-19 07:30N 35°24' E 139°41'0 0.0
2018-Apr-19 07:01N 35°24' E 139°41'2 3.9
2018-Apr-19 06:30N 35°26' E 139°42'1 2.4
2018-Apr-19 06:01N 35°27' E 139°42'0 0.0
2018-Apr-19 05:30N 35°27' E 139°42'0 0.0
2018-Apr-19 05:01N 35°27' E 139°42'0 0.0
2018-Apr-19 04:31N 35°27' E 139°42'0 0.0
2018-Apr-19 04:01N 35°27' E 139°42'0 0.0
2018-Apr-19 03:30N 35°27' E 139°42'0 0.0
2018-Apr-19 03:00N 35°27' E 139°42'3 5.2
2018-Apr-19 02:31N 35°27' E 139°39'4 8.2
2018-Apr-19 02:01N 35°29' E 139°43'3 6.1
2018-Apr-19 01:31N 35°31' E 139°46'1 2.0
2018-Apr-19 01:00N 35°30' E 139°45'4 7.1
2018-Apr-19 00:30N 35°27' E 139°43'1 2.1
2018-Apr-19 00:00N 35°28' E 139°44'2 4.8
2018-Apr-18 23:30N 35°27' E 139°41'1 3.0
2018-Apr-18 23:00N 35°27' E 139°39'0 0.0
2018-Apr-18 22:30N 35°27' E 139°39'1 2.8
2018-Apr-18 22:01N 35°27' E 139°41'2 4.3
2018-Apr-18 21:30N 35°26' E 139°43'0 0.2
2018-Apr-18 21:00N 35°26' E 139°43'3 5.1
2018-Apr-18 20:31N 35°27' E 139°40'0 0.0
2018-Apr-18 20:01N 35°27' E 139°40'0 0.0
2018-Apr-18 19:30N 35°27' E 139°40'0 0.0
2018-Apr-18 19:00N 35°27' E 139°40'0 0.0
2018-Apr-18 18:31N 35°27' E 139°40'0 0.0
2018-Apr-18 18:00N 35°27' E 139°40'0 0.0
2018-Apr-18 17:31N 35°27' E 139°40'0 0.0
2018-Apr-18 17:00N 35°27' E 139°40'0 0.0
2018-Apr-18 16:30N 35°27' E 139°40'0 0.0
2018-Apr-18 16:01N 35°27' E 139°40'0 0.0
2018-Apr-18 15:31N 35°27' E 139°40'0 0.0
2018-Apr-18 15:01N 35°27' E 139°40'0 0.0
2018-Apr-18 14:31N 35°27' E 139°40'0 0.0
2018-Apr-18 14:00N 35°27' E 139°40'0 0.0
2018-Apr-18 13:30N 35°27' E 139°40'0 0.0
2018-Apr-18 13:00N 35°27' E 139°40'0 0.0
2018-Apr-18 12:31N 35°27' E 139°40'0 0.0
2018-Apr-18 12:01N 35°27' E 139°40'0 0.0
2018-Apr-18 11:31N 35°27' E 139°40'0 0.0
2018-Apr-18 11:01N 35°27' E 139°40'0 0.0
2018-Apr-18 10:31N 35°27' E 139°40'0 0.0
2018-Apr-18 10:01N 35°27' E 139°40'2 3.5
2018-Apr-18 09:30N 35°28' E 139°42'0 0.9
2018-Apr-18 09:00N 35°28' E 139°42'1 2.0
2018-Apr-18 08:30N 35°27' E 139°43'1 1.8
2018-Apr-18 08:01N 35°28' E 139°42'0 0.0
2018-Apr-18 07:31N 35°28' E 139°42'0 0.0
2018-Apr-18 07:00N 35°28' E 139°42'0 0.0
2018-Apr-18 06:31N 35°28' E 139°42'0 0.1
2018-Apr-18 06:00N 35°28' E 139°42'0 0.1
2018-Apr-18 05:30N 35°28' E 139°42'0 0.0
2018-Apr-18 05:00N 35°28' E 139°42'0 0.1
2018-Apr-18 04:30N 35°28' E 139°42'4 7.3
2018-Apr-18 04:00N 35°30' E 139°45'0 1.0
2018-Apr-18 03:30N 35°30' E 139°45'1 1.2
2018-Apr-18 03:01N 35°30' E 139°44'3 5.2
2018-Apr-18 02:30N 35°28' E 139°42'2 3.7
2018-Apr-18 02:01N 35°27' E 139°40'0 0.0
2018-Apr-18 01:30N 35°27' E 139°40'0 0.0
2018-Apr-18 01:01N 35°27' E 139°40'0 0.0
2018-Apr-18 00:31N 35°27' E 139°40'0 0.0
2018-Apr-18 00:00N 35°27' E 139°40'0 0.0
2018-Apr-17 23:31N 35°27' E 139°40'0 0.0
2018-Apr-17 23:00N 35°27' E 139°40'0 0.0
2018-Apr-17 22:31N 35°27' E 139°40'0 0.0
2018-Apr-17 22:01N 35°27' E 139°40'0 0.0
2018-Apr-17 21:31N 35°27' E 139°40'0 0.0
2018-Apr-17 21:01N 35°27' E 139°40'0 0.0
2018-Apr-17 20:31N 35°27' E 139°40'0 0.0
2018-Apr-17 20:01N 35°27' E 139°40'0 0.0
2018-Apr-17 19:31N 35°27' E 139°40'0 0.0
2018-Apr-17 19:01N 35°27' E 139°40'0 0.0
2018-Apr-17 18:30N 35°27' E 139°40'0 0.0
2018-Apr-17 18:01N 35°27' E 139°40'0 0.0
2018-Apr-17 17:31N 35°27' E 139°40'0 0.0
2018-Apr-17 17:00N 35°27' E 139°40'0 0.0
2018-Apr-17 16:31N 35°27' E 139°40'0 0.0
2018-Apr-17 16:01N 35°27' E 139°40'0 0.0
2018-Apr-17 15:31N 35°27' E 139°40'0 0.0
2018-Apr-17 15:01N 35°27' E 139°40'0 0.0
2018-Apr-17 14:30N 35°27' E 139°40'0 0.0
2018-Apr-17 14:01N 35°27' E 139°40'0 0.0
2018-Apr-17 13:31N 35°27' E 139°40'0 0.0
2018-Apr-17 13:00N 35°27' E 139°40'0 0.0
2018-Apr-17 12:31N 35°27' E 139°40'0 0.0
2018-Apr-17 12:01N 35°27' E 139°40'0 0.0
2018-Apr-17 11:30N 35°27' E 139°40'0 0.0
2018-Apr-17 11:01N 35°27' E 139°40'0 0.0
2018-Apr-17 10:30N 35°27' E 139°40'0 0.0
2018-Apr-17 10:00N 35°27' E 139°40'0 0.0
2018-Apr-17 09:31N 35°27' E 139°40'0 0.0
2018-Apr-17 09:01N 35°27' E 139°40'0 0.0
2018-Apr-17 08:30N 35°27' E 139°40'0 0.0
2018-Apr-17 08:01N 35°27' E 139°40'0 0.0
2018-Apr-17 07:31N 35°27' E 139°40'0 0.0
2018-Apr-17 07:00N 35°27' E 139°40'0 0.0
2018-Apr-17 06:31N 35°27' E 139°40'0 0.0
2018-Apr-17 06:01N 35°27' E 139°40'0 0.0
2018-Apr-17 05:31N 35°27' E 139°40'0 0.0
2018-Apr-17 05:00N 35°27' E 139°40'0 0.0
2018-Apr-17 04:30N 35°27' E 139°40'0 0.0
2018-Apr-17 04:00N 35°27' E 139°40'0 0.0
2018-Apr-17 03:30N 35°27' E 139°40'0 0.0
2018-Apr-17 03:01N 35°27' E 139°40'0 0.0
2018-Apr-17 02:31N 35°27' E 139°40'0 0.0
2018-Apr-17 02:01N 35°27' E 139°40'0 0.0
2018-Apr-17 01:31N 35°27' E 139°40'0 0.0
2018-Apr-17 01:00N 35°27' E 139°40'0 0.0
2018-Apr-17 00:31N 35°27' E 139°40'0 0.0
2018-Apr-17 00:01N 35°27' E 139°40'0 0.0
2018-Apr-16 23:30N 35°27' E 139°40'0 0.0
2018-Apr-16 23:00N 35°27' E 139°40'0 0.0
2018-Apr-16 22:30N 35°27' E 139°40'0 0.0
2018-Apr-16 22:00N 35°27' E 139°40'0 0.1
2018-Apr-16 21:31N 35°27' E 139°40'3 6.2
2018-Apr-16 21:00N 35°24' E 139°41'1 1.1
2018-Apr-16 20:30N 35°24' E 139°41'0 0.2
2018-Apr-16 20:01N 35°24' E 139°41'0 0.6
2018-Apr-16 19:30N 35°24' E 139°41'0 0.2
2018-Apr-16 19:01N 35°24' E 139°41'1 2.6
2018-Apr-16 18:30N 35°25' E 139°42'3 5.4
2018-Apr-16 18:01N 35°28' E 139°41'0 0.0
2018-Apr-16 17:30N 35°28' E 139°41'0 0.0
2018-Apr-16 17:00N 35°28' E 139°41'0 0.0
2018-Apr-16 16:30N 35°28' E 139°41'0 0.0
2018-Apr-16 16:01N 35°28' E 139°41'0 0.0
2018-Apr-16 15:30N 35°28' E 139°41'0 0.0
2018-Apr-16 15:00N 35°28' E 139°41'0 0.0
2018-Apr-16 14:30N 35°28' E 139°41'0 0.0
2018-Apr-16 14:01N 35°28' E 139°41'0 0.6
2018-Apr-16 13:31N 35°27' E 139°40'4 7.8
2018-Apr-16 13:00N 35°23' E 139°41'0 1.0
2018-Apr-16 12:30N 35°24' E 139°41'2 4.1
2018-Apr-16 12:00N 35°22' E 139°42'1 2.4
2018-Apr-16 11:31N 35°23' E 139°41'1 2.3
2018-Apr-16 11:01N 35°24' E 139°41'0 0.4
2018-Apr-16 10:30N 35°24' E 139°41'0 0.0
2018-Apr-16 10:00N 35°24' E 139°41'1 2.3
2018-Apr-16 09:30N 35°23' E 139°40'0 0.5
2018-Apr-16 09:01N 35°23' E 139°41'2 4.1
2018-Apr-16 08:30N 35°25' E 139°41'0 0.5
2018-Apr-16 08:00N 35°25' E 139°41'1 2.9
2018-Apr-16 07:31N 35°27' E 139°41'1 1.4
2018-Apr-16 07:01N 35°27' E 139°41'0 0.0
2018-Apr-16 06:31N 35°27' E 139°41'0 0.0
2018-Apr-16 06:01N 35°27' E 139°41'0 0.0
2018-Apr-16 05:31N 35°27' E 139°41'0 0.0
2018-Apr-16 05:00N 35°27' E 139°41'0 0.0
2018-Apr-16 04:30N 35°27' E 139°41'0 0.0
2018-Apr-16 04:01N 35°27' E 139°41'0 0.0
2018-Apr-16 03:31N 35°27' E 139°41'0 0.0
2018-Apr-16 03:01N 35°27' E 139°41'0 0.0
2018-Apr-16 02:30N 35°27' E 139°41'0 0.0
2018-Apr-16 02:01N 35°27' E 139°41'0 0.0
2018-Apr-16 01:31N 35°27' E 139°41'0 0.0
2018-Apr-16 01:01N 35°27' E 139°41'0 0.0
2018-Apr-16 00:31N 35°27' E 139°41'3 5.1
2018-Apr-16 00:01N 35°24' E 139°42'1 2.0
2018-Apr-15 23:31N 35°24' E 139°41'0 0.3
2018-Apr-15 23:01N 35°24' E 139°41'1 2.5
2018-Apr-15 22:30N 35°23' E 139°41'0 0.9
2018-Apr-15 22:01N 35°23' E 139°41'3 5.6
2018-Apr-15 21:31N 35°26' E 139°42'1 2.3
2018-Apr-15 21:00N 35°27' E 139°40'0 0.0
2018-Apr-15 20:31N 35°27' E 139°40'0 0.0
2018-Apr-15 20:01N 35°27' E 139°40'0 0.0
2018-Apr-15 19:31N 35°27' E 139°40'0 0.0
2018-Apr-15 19:01N 35°27' E 139°40'0 0.0
2018-Apr-15 18:30N 35°27' E 139°40'0 0.0
2018-Apr-15 18:01N 35°27' E 139°40'0 0.0
2018-Apr-15 17:31N 35°27' E 139°40'0 0.0
2018-Apr-15 17:01N 35°27' E 139°40'0 0.0
2018-Apr-15 16:30N 35°27' E 139°40'0 0.0
2018-Apr-15 16:01N 35°27' E 139°40'0 0.0
2018-Apr-15 15:31N 35°27' E 139°40'0 0.0
2018-Apr-15 15:00N 35°27' E 139°40'0 0.0
2018-Apr-15 14:31N 35°27' E 139°40'0 0.0
2018-Apr-15 14:00N 35°27' E 139°40'0 0.0
2018-Apr-15 13:30N 35°27' E 139°40'0 0.0
2018-Apr-15 13:00N 35°27' E 139°40'0 0.0
2018-Apr-15 12:31N 35°27' E 139°40'0 0.0
2018-Apr-15 12:01N 35°27' E 139°40'0 0.0
2018-Apr-15 11:30N 35°27' E 139°40'0 0.0
2018-Apr-15 11:01N 35°27' E 139°40'0 0.0
2018-Apr-15 10:30N 35°27' E 139°40'0 0.0
2018-Apr-15 10:01N 35°27' E 139°40'0 0.0
2018-Apr-15 09:31N 35°27' E 139°40'0 0.0
2018-Apr-15 09:01N 35°27' E 139°40'0 0.0
2018-Apr-15 08:30N 35°27' E 139°40'0 0.0
2018-Apr-15 08:01N 35°27' E 139°40'0 0.1
2018-Apr-15 07:31N 35°27' E 139°40'5 9.2
2018-Apr-15 07:00N 35°29' E 139°45'0 0.3
2018-Apr-15 06:31N 35°29' E 139°45'2 3.5
2018-Apr-15 06:01N 35°28' E 139°46'0 0.7
2018-Apr-15 05:31N 35°28' E 139°46'4 8.9
2018-Apr-15 05:00N 35°27' E 139°41'2 4.2
2018-Apr-15 04:30N 35°28' E 139°38'0 0.0
2018-Apr-15 04:00N 35°28' E 139°38'0 0.0
2018-Apr-15 03:30N 35°28' E 139°38'0 0.0
2018-Apr-15 03:01N 35°28' E 139°38'0 0.0
2018-Apr-15 02:31N 35°28' E 139°38'0 0.0
2018-Apr-15 02:00N 35°28' E 139°38'0 0.0
2018-Apr-15 01:30N 35°28' E 139°38'0 0.0
2018-Apr-15 01:01N 35°28' E 139°38'0 0.0
2018-Apr-15 00:30N 35°28' E 139°38'0 0.0
2018-Apr-15 00:01N 35°28' E 139°38'0 0.0
2018-Apr-14 23:30N 35°28' E 139°38'0 0.0
2018-Apr-14 23:00N 35°28' E 139°38'0 0.0
2018-Apr-14 22:30N 35°28' E 139°38'0 0.0
2018-Apr-14 22:01N 35°28' E 139°38'0 0.0
2018-Apr-14 21:30N 35°28' E 139°38'0 0.0
2018-Apr-14 21:01N 35°28' E 139°38'0 0.0
2018-Apr-14 20:30N 35°28' E 139°38'0 0.0
2018-Apr-14 20:00N 35°28' E 139°38'0 0.0
2018-Apr-14 19:30N 35°28' E 139°38'0 0.0
2018-Apr-14 19:01N 35°28' E 139°38'0 0.0
2018-Apr-14 18:30N 35°28' E 139°38'0 0.0
2018-Apr-14 18:00N 35°28' E 139°38'0 0.0
2018-Apr-14 17:31N 35°28' E 139°38'0 0.0
2018-Apr-14 17:00N 35°28' E 139°38'0 0.0
2018-Apr-14 16:30N 35°28' E 139°38'0 0.0
2018-Apr-14 16:00N 35°28' E 139°38'0 0.0
2018-Apr-14 15:31N 35°28' E 139°38'0 0.0
2018-Apr-14 15:00N 35°28' E 139°38'0 0.0
2018-Apr-14 14:31N 35°28' E 139°38'0 0.0
2018-Apr-14 14:01N 35°28' E 139°38'0 0.0
2018-Apr-14 13:30N 35°28' E 139°38'0 0.0
2018-Apr-14 13:01N 35°28' E 139°38'0 0.0
2018-Apr-14 12:31N 35°28' E 139°38'  

Dump ship's entire track history